Terminal Aerodrome Forecast
Issued by NWS Albany, NY

Home | Current Version | Previous Version | Text Only | Print | Product List | Glossary On
Versions: 1 2 3 4 5 6 7 8 9 10 11 12 13 14 15 16 17 18 19 20 21 22 23 24 25 26 27 28 29 30
000
FTUS41 KALY 280549
TAFGFL
TAF
KGFL 280549Z 2806/2906 35007KT P6SM VCSH OVC035
      TEMPO 2806/2810 3SM -SHSN OVC025
     FM281000 01010KT P6SM VCSH OVC030
      TEMPO 2814/2818 2SM -SHSN OVC015
     FM282300 01007KT P6SM OVC040
     FM290500 36004KT P6SM SCT045=

USA.gov is the U.S. government's official web portal to all federal, state and local government web resources and services.